Thunder radar more information blitzortung!


Radar de pluja more information rain snow radar


Visita la nostra xarxa de llocs de meteo:

Template documentation
and downloads

And another site



No particular awareness of the weather is required.    There are no Weather-warnings

Pagina Historial Weather Underground text

Diari Resum Octubre 11, 2017 Unitats:  Imperial    Mètric   Tant
« Previous Dia
SegĂźent Dia »
Diari Setmana Mensual Anual Personalitzada
  Maxima: Minima: Media:
Temperatura: 79.2 °F 55.9 °F 68.9 °F
Punt de rosada: 63 °F 53.1 °F 59.2 °F
Humitat: 91 % 53 % 73 %
Wind Speed: 12.7 mph 0 mph 3.5 mph
RĂ fegues de vent: 12.7 mph - -
Vent:- - SW
Pression baro: 30.2 in 30.2 in -
Precipitacions: 0 in    
Historical Graphs
 
 
Dades de taula per Octubre 11, 2017
Temps Temperatura Punt de rosada Pression baro Vent Wind Speed RĂ fegues de vent Humitat Rainfall Rate (Hourly)
00:00 59 °F 55.4 °F 30.2 in Calm   1 mph 88 % 0 in
00:02 64 °F 58.8 °F 30.2 in Calm     83 % 0 in
00:07 63.9 °F 58.6 °F 30.2 in Calm     83 % 0 in
00:10 58.6 °F 55 °F 30.2 in SW 1 mph 2 mph 88 % 0 in
00:12 63.7 °F 58.5 °F 30.2 in Calm     83 % 0 in
00:20 58.5 °F 55.2 °F 30.2 in Calm   1 mph 89 % 0 in
00:30 58.3 °F 55 °F 30.2 in Calm     89 % 0 in
00:40 58.1 °F 54.9 °F 30.2 in Calm     89 % 0 in
00:50 57.9 °F 54.7 °F 30.2 in Calm     89 % 0 in
01:00 57.7 °F 54.5 °F 30.2 in Calm     89 % 0 in
01:10 57.4 °F 54.1 °F 30.2 in Calm     89 % 0 in
01:20 57.4 °F 54.1 °F 30.2 in Calm     89 % 0 in
01:30 56.8 °F 53.6 °F 30.2 in Calm   1 mph 89 % 0 in
01:40 56.7 °F 53.4 °F 30.2 in SW 1 mph 2 mph 89 % 0 in
01:50 56.8 °F 53.6 °F 30.2 in Calm   2 mph 89 % 0 in
02:00 56.7 °F 53.4 °F 30.2 in Calm     89 % 0 in
02:10 56.5 °F 53.2 °F 30.2 in Calm   1 mph 89 % 0 in
02:20 56.7 °F 53.8 °F 30.2 in SW 1 mph 2 mph 90 % 0 in
02:30 56.3 °F 53.4 °F 30.2 in Calm     90 % 0 in
02:40 56.1 °F 53.2 °F 30.2 in SW 1 mph 2 mph 90 % 0 in
02:50 56.1 °F 53.2 °F 30.2 in SW 1 mph 1 mph 90 % 0 in
03:00 55.9 °F 53.1 °F 30.2 in Calm     90 % 0 in
03:10 56.1 °F 53.2 °F 30.2 in Calm   1 mph 90 % 0 in
03:20 56.5 °F 54 °F 30.2 in SW 1 mph 2 mph 91 % 0 in
03:30 56.7 °F 54.1 °F 30.2 in Calm     91 % 0 in
03:40 56.7 °F 53.8 °F 30.2 in Calm   2 mph 90 % 0 in
03:50 56.8 °F 54 °F 30.2 in SW 1 mph 1 mph 90 % 0 in
04:00 57.2 °F 54.3 °F 30.2 in SW 1 mph 2 mph 90 % 0 in
04:20 57.7 °F 54.9 °F 30.2 in SW 2 mph 2 mph 90 % 0 in
04:30 58.3 °F 55.4 °F 30.2 in SW 1 mph 3 mph 90 % 0 in
04:40 58.8 °F 55.9 °F 30.2 in SW 2 mph 3 mph 90 % 0 in
04:50 59.9 °F 57 °F 30.2 in SW 1 mph 3 mph 90 % 0 in
05:00 60.6 °F 57.4 °F 30.2 in SW 1 mph 2 mph 89 % 0 in
05:10 61.5 °F 57.9 °F 30.2 in SW 1 mph 3 mph 88 % 0 in
05:20 62.8 °F 58.8 °F 30.2 in Calm   2 mph 87 % 0 in
10:29 64.6 °F 59.5 °F 30.2 in SSE 2.2 mph 2.2 mph 84 % 0 in
10:30 64.6 °F 59.5 °F 30.2 in SE 2.3 mph 2.3 mph 84 % 0 in
10:35 65.3 °F 60.1 °F 30.2 in SE 3.6 mph 3.6 mph 83 % 0 in
10:40 66.2 °F 59.7 °F 30.2 in ESE 2.3 mph 2.3 mph 80 % 0 in
10:45 67.1 °F 60.4 °F 30.2 in South 2.3 mph 2.3 mph 79 % 0 in
10:50 67.8 °F 61.2 °F 30.2 in SW 2.3 mph 2.3 mph 79 % 0 in
10:55 68.5 °F 60.6 °F 30.2 in SE 2.3 mph 2.3 mph 76 % 0 in
11:00 68.9 °F 61.3 °F 30.2 in ESE 2.4 mph 2.4 mph 77 % 0 in
11:05 68.5 °F 60.3 °F 30.2 in ENE 2.3 mph 2.3 mph 75 % 0 in
11:10 68.5 °F 60.3 °F 30.2 in East 2.4 mph 2.4 mph 75 % 0 in
11:15 69.1 °F 60.8 °F 30.2 in ESE 2.3 mph 2.3 mph 75 % 0 in
11:20 70 °F 61.3 °F 30.2 in SSE 2.3 mph 2.3 mph 74 % 0 in
11:25 70.5 °F 61.9 °F 30.2 in West 2.3 mph 2.3 mph 74 % 0 in
11:30 70.5 °F 61.3 °F 30.2 in ESE 2.4 mph 2.4 mph 73 % 0 in
11:35 71.1 °F 61.2 °F 30.2 in SSE 3.5 mph 3.5 mph 71 % 0 in
11:40 71.8 °F 62.2 °F 30.2 in NW 3.5 mph 3.5 mph 72 % 0 in
11:45 72.7 °F 62.8 °F 30.2 in SSW 1.4 mph   71 % 0 in
11:50 72.5 °F 62.2 °F 30.2 in SW 2.6 mph 2.6 mph 70 % 0 in
11:55 72 °F 61.5 °F 30.2 in South 3.5 mph 3.5 mph 70 % 0 in
12:00 72.7 °F 61.9 °F 30.2 in SSE 4.6 mph 4.6 mph 69 % 0 in
12:05 73.6 °F 62.8 °F 30.2 in WNW 4.6 mph 4.6 mph 69 % 0 in
12:10 73 °F 62.2 °F 30.2 in South 3.5 mph 3.5 mph 69 % 0 in
12:15 73.8 °F 62.4 °F 30.2 in SW 4.6 mph 4.6 mph 68 % 0 in
12:20 74.1 °F 63 °F 30.2 in SW 6.9 mph 6.9 mph 68 % 0 in
12:25 74.7 °F 63 °F 30.2 in SW 4.9 mph 4.9 mph 67 % 0 in
12:30 75.7 °F 62.8 °F 30.2 in SSW 2.9 mph 2.9 mph 64 % 0 in
12:35 75.6 °F 62.1 °F 30.2 in SSW 6.9 mph 6.9 mph 63 % 0 in
12:40 75.2 °F 61.7 °F 30.2 in South 5.8 mph 5.8 mph 63 % 0 in
12:45 75 °F 62.1 °F 30.2 in SW 5.8 mph 5.8 mph 64 % 0 in
12:50 74.7 °F 61.7 °F 30.2 in SW 6.9 mph 6.9 mph 64 % 0 in
12:55 75.6 °F 62.1 °F 30.2 in SSW 7.8 mph 7.8 mph 63 % 0 in
13:00 76.3 °F 61.9 °F 30.2 in SW 5.4 mph 5.4 mph 61 % 0 in
13:05 76.1 °F 61.7 °F 30.2 in South 3.5 mph 3.5 mph 61 % 0 in
13:10 75.7 °F 61.3 °F 30.2 in West 4 mph 4 mph 61 % 0 in
13:15 76.3 °F 61.9 °F 30.2 in SW 4.6 mph 4.6 mph 61 % 0 in
13:20 76.3 °F 61.3 °F 30.2 in SSE 2.3 mph 2.3 mph 60 % 0 in
13:25 76.5 °F 61.2 °F 30.2 in SSE 6.9 mph 6.9 mph 59 % 0 in
13:30 77.7 °F 61.3 °F 30.2 in South 2.6 mph 2.6 mph 57 % 0 in
13:35 78.1 °F 61.5 °F 30.2 in SW 5.8 mph 5.8 mph 57 % 0 in
13:40 77.9 °F 61.3 °F 30.2 in SSW 5.8 mph 5.8 mph 57 % 0 in
13:45 78.3 °F 61.3 °F 30.2 in SSW 3.5 mph 3.5 mph 56 % 0 in
13:50 78.3 °F 60.8 °F 30.2 in WSW 6.9 mph 6.9 mph 55 % 0 in
13:55 78.8 °F 61.3 °F 30.2 in SW 3.5 mph 3.5 mph 55 % 0 in
14:00 79.2 °F 62.1 °F 30.2 in West 6.9 mph 6.9 mph 56 % 0 in
14:05 77.7 °F 59.7 °F 30.2 in SW 4.7 mph 4.7 mph 54 % 0 in
14:10 78.6 °F 60.6 °F 30.2 in SW 4.6 mph 4.6 mph 54 % 0 in
14:15 78.4 °F 60.4 °F 30.2 in South 5.8 mph 5.8 mph 54 % 0 in
14:20 79 °F 61 °F 30.2 in SW 8.1 mph 8.1 mph 54 % 0 in
14:25 78.4 °F 60.4 °F 30.2 in SW 6.9 mph 6.9 mph 54 % 0 in
14:30 78.3 °F 60.3 °F 30.2 in SW 3.5 mph 3.5 mph 54 % 0 in
14:35 78.3 °F 60.3 °F 30.2 in WSW 9.2 mph 9.2 mph 54 % 0 in
14:40 78.4 °F 60.4 °F 30.2 in SSE 6.9 mph 6.9 mph 54 % 0 in
14:45 78.3 °F 60.3 °F 30.2 in WSW 6.9 mph 6.9 mph 54 % 0 in
14:50 78.3 °F 60.3 °F 30.2 in South 4.7 mph 4.7 mph 54 % 0 in
14:55 77.7 °F 59.7 °F 30.2 in SW 9.2 mph 9.2 mph 54 % 0 in
15:00 77.5 °F 59.5 °F 30.2 in SSE 8.1 mph 8.1 mph 54 % 0 in
15:05 78.1 °F 60.1 °F 30.2 in SSW 5.8 mph 5.8 mph 54 % 0 in
15:10 78.1 °F 60.1 °F 30.2 in SW 6.9 mph 6.9 mph 54 % 0 in
15:15 78.8 °F 61.3 °F 30.2 in SW 4.9 mph 4.9 mph 55 % 0 in
15:20 78.1 °F 60.1 °F 30.2 in WSW 9.4 mph 9.4 mph 54 % 0 in
15:25 77.5 °F 59.5 °F 30.2 in SSE 9.2 mph 9.2 mph 54 % 0 in
15:30 78.1 °F 60.6 °F 30.2 in WSW 5.8 mph 5.8 mph 55 % 0 in
15:35 78.3 °F 60.3 °F 30.2 in West 4.6 mph 4.6 mph 54 % 0 in
15:40 78.4 °F 60.4 °F 30.2 in SW 5.8 mph 5.8 mph 54 % 0 in
15:45 78.3 °F 60.3 °F 30.2 in SSW 4.6 mph 4.6 mph 54 % 0 in
15:50 78.1 °F 60.1 °F 30.2 in SSE 8.1 mph 8.1 mph 54 % 0 in
15:55 77.9 °F 59.9 °F 30.2 in SSW 10 mph 10 mph 54 % 0 in
16:00 77.9 °F 59.9 °F 30.2 in WSW 9.7 mph 9.7 mph 54 % 0 in
16:05 77.7 °F 59.2 °F 30.2 in SW 10.4 mph 10.4 mph 53 % 0 in
16:10 77.7 °F 59.2 °F 30.2 in SSW 6.2 mph 6.2 mph 53 % 0 in
16:11 77.7 °F 59.2 °F 30.2 in SSW 5.8 mph 5.8 mph 53 % 0 in
16:16 77.9 °F 59.9 °F 30.2 in South 5.8 mph 5.8 mph 54 % 0 in
16:21 77.5 °F 59.2 °F 30.2 in SW 5.6 mph 5.6 mph 53 % 0 in
16:26 77.9 °F 59.9 °F 30.2 in SSE 8.1 mph 8.1 mph 54 % 0 in
16:36 78.1 °F 60.1 °F 30.2 in SW 6.9 mph 6.9 mph 54 % 0 in
16:41 77.9 °F 59.9 °F 30.2 in WSW 5.8 mph 5.8 mph 54 % 0 in
16:46 77.7 °F 59.7 °F 30.2 in SSE 9.2 mph 9.2 mph 54 % 0 in
16:51 77.4 °F 59.4 °F 30.2 in South 8.1 mph 8.1 mph 54 % 0 in
16:56 77.2 °F 59.2 °F 30.2 in SW 8.1 mph 8.1 mph 54 % 0 in
17:01 77.4 °F 59.4 °F 30.2 in WSW 12.7 mph 12.7 mph 54 % 0 in
17:06 76.8 °F 59.4 °F 30.2 in WSW 8.1 mph 8.1 mph 55 % 0 in
17:11 76.8 °F 59.4 °F 30.2 in South 9.2 mph 9.2 mph 55 % 0 in
17:16 76.8 °F 59.9 °F 30.2 in WSW 6 mph 6 mph 56 % 0 in
17:21 76.5 °F 59.5 °F 30.2 in SW 8.1 mph 8.1 mph 56 % 0 in
17:26 75.9 °F 59.5 °F 30.2 in SW 10.4 mph 10.4 mph 57 % 0 in
17:31 76.1 °F 59.7 °F 30.2 in SW 6.2 mph 6.2 mph 57 % 0 in
17:36 75.6 °F 59.4 °F 30.2 in SSW 10.4 mph 10.4 mph 57 % 0 in
17:41 75.2 °F 59.4 °F 30.2 in SW 5.8 mph 5.8 mph 58 % 0 in
17:46 75.2 °F 59.4 °F 30.2 in SW 5.8 mph 5.8 mph 58 % 0 in
17:51 74.8 °F 60.1 °F 30.2 in SW 10.4 mph 10.4 mph 60 % 0 in
17:56 74.5 °F 60.1 °F 30.2 in South 5.8 mph 5.8 mph 61 % 0 in
18:01 74.5 °F 60.1 °F 30.2 in SW 8.5 mph 8.5 mph 61 % 0 in
18:06 74.5 °F 60.1 °F 30.2 in South 4.6 mph 4.6 mph 61 % 0 in
18:11 74.5 °F 60.1 °F 30.2 in West 4.6 mph 4.6 mph 61 % 0 in
18:16 73.8 °F 59.9 °F 30.2 in SW 9.2 mph 9.2 mph 62 % 0 in
18:21 73.6 °F 59.7 °F 30.2 in WSW 5.8 mph 5.8 mph 62 % 0 in
18:26 73.6 °F 59.7 °F 30.2 in SW 5.8 mph 5.8 mph 62 % 0 in
18:31 73 °F 59.7 °F 30.2 in WSW 5.8 mph 5.8 mph 63 % 0 in
18:36 72.9 °F 59.5 °F 30.2 in South 4.6 mph 4.6 mph 63 % 0 in
18:41 72.5 °F 59.5 °F 30.2 in West 4.6 mph 4.6 mph 64 % 0 in
18:46 72.1 °F 59.7 °F 30.2 in SW 8.1 mph 8.1 mph 65 % 0 in
18:51 71.8 °F 59.7 °F 30.2 in WSW 6.9 mph 6.9 mph 66 % 0 in
18:56 71.6 °F 59.5 °F 30.2 in West 6.9 mph 6.9 mph 66 % 0 in
19:01 71.2 °F 59.7 °F 30.2 in SW 5.8 mph 5.8 mph 67 % 0 in
19:06 70.9 °F 59.7 °F 30.2 in SSW 4.6 mph 4.6 mph 68 % 0 in
19:11 70.7 °F 59.5 °F 30.2 in SW 6 mph 6 mph 68 % 0 in
19:16 70.5 °F 59.9 °F 30.2 in SW 4.6 mph 4.6 mph 69 % 0 in
19:20 64.9 °F 60.1 °F 30.2 in Calm     84 % 0 in
19:21 70.3 °F 59.7 °F 30.2 in WSW 6.9 mph 6.9 mph 69 % 0 in
19:26 70 °F 59.7 °F 30.2 in South 5.9 mph 5.9 mph 70 % 0 in
19:30 64.8 °F 60.1 °F 30.2 in Calm     85 % 0 in
19:36 69.6 °F 59.7 °F 30.2 in SSW 3.6 mph 3.6 mph 71 % 0 in
19:40 64.8 °F 60.1 °F 30.2 in Calm   1 mph 85 % 0 in
19:41 69.4 °F 59.5 °F 30.2 in WSW 4.6 mph 4.6 mph 71 % 0 in
19:46 69.1 °F 59.4 °F 30.2 in SW 6.9 mph 6.9 mph 71 % 0 in
19:50 64.6 °F 60.1 °F 30.2 in Calm     85 % 0 in
19:51 68.9 °F 59.5 °F 30.2 in SW 4.6 mph 4.6 mph 72 % 0 in
19:56 68.7 °F 59.4 °F 30.2 in WSW 5.8 mph 5.8 mph 72 % 0 in
20:00 64.2 °F 59.9 °F 30.2 in Calm     86 % 0 in
20:06 68.5 °F 59.5 °F 30.2 in West 4.6 mph 4.6 mph 73 % 0 in
20:10 64 °F 59.7 °F 30.2 in Calm   1 mph 86 % 0 in
20:11 68.4 °F 59.4 °F 30.2 in WSW 5.8 mph 5.8 mph 73 % 0 in
20:16 68.2 °F 59.2 °F 30.2 in WSW 5.8 mph 5.8 mph 73 % 0 in
20:20 63.7 °F 59.4 °F 30.2 in Calm     86 % 0 in
20:21 68.2 °F 59.5 °F 30.2 in SW 2.4 mph 2.4 mph 74 % 0 in
20:26 68 °F 59.4 °F 30.2 in SW 3.5 mph 3.5 mph 74 % 0 in
20:30 63.5 °F 59.2 °F 30.2 in Calm     86 % 0 in
20:31 67.8 °F 59.5 °F 30.2 in SSW 3.5 mph 3.5 mph 75 % 0 in
20:36 67.8 °F 59.5 °F 30.2 in South 3.6 mph 3.6 mph 75 % 0 in
20:40 63.3 °F 59.2 °F 30.2 in Calm     86 % 0 in
20:41 67.5 °F 59.5 °F 30.2 in SW 3.5 mph 3.5 mph 76 % 0 in
20:46 67.5 °F 59.5 °F 30.2 in SW 3.5 mph 3.5 mph 76 % 0 in
20:50 63.1 °F 59.2 °F 30.2 in Calm     87 % 0 in
20:51 67.3 °F 59.5 °F 30.2 in WSW 2.3 mph 2.3 mph 76 % 0 in
20:56 67.1 °F 59.4 °F 30.2 in SSW 1.2 mph 1.2 mph 76 % 0 in
21:01 67.1 °F 59.5 °F 30.2 in WSW 2.3 mph 2.3 mph 77 % 0 in
21:06 67.1 °F 59.5 °F 30.2 in West 4.6 mph 4.6 mph 77 % 0 in
21:10 62.2 °F 58.3 °F 30.2 in Calm   1 mph 87 % 0 in
21:16 66.7 °F 59.4 °F 30.2 in WSW 1.2 mph   77 % 0 in
21:20 62.1 °F 58.1 °F 30.2 in Calm   2 mph 87 % 0 in
21:26 66.6 °F 59.5 °F 30.2 in WSW 1.4 mph 1.4 mph 78 % 0 in
21:30 61.9 °F 58.3 °F 30.2 in Calm     88 % 0 in
21:31 66.6 °F 59.2 °F 30.2 in SW 3.5 mph 3.5 mph 77 % 0 in
21:36 66.4 °F 59.4 °F 30.2 in WSW 2.6 mph 2.6 mph 78 % 0 in
21:40 61.5 °F 57.9 °F 30.2 in Calm     88 % 0 in
21:41 66.4 °F 59.4 °F 30.2 in WSW 2.3 mph 2.3 mph 78 % 0 in
21:46 66.2 °F 59.5 °F 30.2 in SW 2.9 mph 2.9 mph 79 % 0 in
21:50 61.3 °F 57.7 °F 30.2 in Calm     88 % 0 in
21:51 66.2 °F 59.2 °F 30.2 in WNW 2.4 mph 2.4 mph 78 % 0 in
21:56 66.2 °F 59.5 °F 30.2 in West 3.5 mph 3.5 mph 79 % 0 in
22:00 61.3 °F 57.7 °F 30.2 in Calm     88 % 0 in
22:01 66.2 °F 59.5 °F 30.2 in SW 2.3 mph 2.3 mph 79 % 0 in
22:06 66.2 °F 59.5 °F 30.2 in SW 2.3 mph 2.3 mph 79 % 0 in
22:10 61.2 °F 57.9 °F 30.2 in Calm     89 % 0 in
22:11 66.2 °F 59.7 °F 30.2 in SW 1.4 mph 1.4 mph 80 % 0 in
22:16 66 °F 60.1 °F 30.2 in SW 2.9 mph 2.9 mph 81 % 0 in
22:20 61.2 °F 57.9 °F 30.2 in Calm     89 % 0 in
22:21 66 °F 60.1 °F 30.2 in SW 2.3 mph 2.3 mph 81 % 0 in
22:26 65.8 °F 59.7 °F 30.2 in SW 2.3 mph 2.3 mph 81 % 0 in
22:30 61 °F 57.7 °F 30.2 in Calm     89 % 0 in
22:31 65.8 °F 60.3 °F 30.2 in WSW 2.2 mph 2.2 mph 82 % 0 in
22:36 65.7 °F 60.1 °F 30.2 in WSW 1.2 mph   82 % 0 in
22:40 60.4 °F 57.2 °F 30.2 in Calm     89 % 0 in
22:41 65.7 °F 60.1 °F 30.2 in West 1.2 mph   82 % 0 in
22:46 65.7 °F 60.1 °F 30.2 in West 2.3 mph   82 % 0 in
22:51 65.7 °F 60.4 °F 30.2 in Calm     83 % 0 in
22:52 65.7 °F 60.4 °F 30.2 in Calm     83 % 0 in
22:57 65.5 °F 60.3 °F 30.2 in Calm     83 % 0 in
23:00 59.9 °F 56.3 °F 30.2 in SSE 1 mph 2 mph 88 % 0 in
23:02 65.5 °F 60.3 °F 30.2 in Calm     83 % 0 in
23:07 65.5 °F 60.3 °F 30.2 in West 1.6 mph 1.6 mph 83 % 0 in
23:10 59.9 °F 56.7 °F 30.2 in SW 1 mph 2 mph 89 % 0 in
23:12 65.5 °F 60.3 °F 30.2 in West 2.3 mph 2.3 mph 83 % 0 in
23:17 65.5 °F 59.7 °F 30.2 in West 2.3 mph 2.3 mph 82 % 0 in
23:20 59.7 °F 56.5 °F 30.2 in SW 1 mph 2 mph 89 % 0 in
23:22 65.3 °F 60.1 °F 30.2 in Calm     83 % 0 in
23:27 65.3 °F 60.1 °F 30.2 in West 1.2 mph   83 % 0 in
23:32 65.3 °F 60.1 °F 30.2 in West 2.3 mph 2.3 mph 83 % 0 in
23:37 65.3 °F 60.1 °F 30.2 in West 1.4 mph 1.4 mph 83 % 0 in
23:40 59.5 °F 56.3 °F 30.2 in SW 1 mph 2 mph 89 % 0 in
23:47 65.3 °F 60.3 °F 30.2 in Calm     84 % 0 in
23:50 59.2 °F 56.1 °F 30.2 in Calm   2 mph 90 % 0 in
23:52 65.1 °F 60.3 °F 30.2 in Calm     84 % 0 in
23:57 64.9 °F 60.1 °F 30.2 in Calm     84 % 0 in
Meteo Sesrovires
Elogis d' Weather Underground - 3.75 mb

Guio original per  Jim McMurry - jmcmurry@mwt.net Adaptat per a la plantilla per  Wim van der Kuil - Leuven-Template.eu

Trobareu la nostra informacio del temps tambe a:

Weather Underground

AWEKAS